sensor_id;sensor_type;location;lat;lon;timestamp;P1;durP1;ratioP1;P2;durP2;ratioP2
14342;SDS011;7255;53.596;9.960;2022-12-08T00:01:14;31.87;;;21.70;;
14342;SDS011;7255;53.596;9.960;2022-12-08T00:03:41;30.60;;;22.47;;
14342;SDS011;7255;53.596;9.960;2022-12-08T00:06:11;30.60;;;21.37;;
14342;SDS011;7255;53.596;9.960;2022-12-08T00:09:04;29.73;;;20.97;;
14342;SDS011;7255;53.596;9.960;2022-12-08T00:11:52;30.27;;;20.43;;
14342;SDS011;7255;53.596;9.960;2022-12-08T00:14:24;30.10;;;20.40;;
14342;SDS011;7255;53.596;9.960;2022-12-08T00:16:53;34.33;;;21.40;;
14342;SDS011;7255;53.596;9.960;2022-12-08T00:19:20;33.83;;;21.83;;
14342;SDS011;7255;53.596;9.960;2022-12-08T00:21:46;31.47;;;22.20;;
14342;SDS011;7255;53.596;9.960;2022-12-08T00:24:14;29.83;;;21.47;;
14342;SDS011;7255;53.596;9.960;2022-12-08T00:26:41;30.00;;;21.97;;
14342;SDS011;7255;53.596;9.960;2022-12-08T00:29:08;29.83;;;22.50;;
14342;SDS011;7255;53.596;9.960;2022-12-08T00:31:34;30.30;;;21.10;;
14342;SDS011;7255;53.596;9.960;2022-12-08T00:34:03;30.03;;;22.70;;
14342;SDS011;7255;53.596;9.960;2022-12-08T00:36:41;29.93;;;21.00;;
14342;SDS011;7255;53.596;9.960;2022-12-08T00:39:07;31.97;;;22.10;;
14342;SDS011;7255;53.596;9.960;2022-12-08T00:41:35;29.37;;;20.93;;
14342;SDS011;7255;53.596;9.960;2022-12-08T00:44:19;28.73;;;20.10;;
14342;SDS011;7255;53.596;9.960;2022-12-08T00:46:46;25.37;;;19.90;;
14342;SDS011;7255;53.596;9.960;2022-12-08T00:49:13;27.73;;;19.93;;
14342;SDS011;7255;53.596;9.960;2022-12-08T00:51:40;27.73;;;19.20;;
14342;SDS011;7255;53.596;9.960;2022-12-08T00:54:06;25.20;;;19.03;;
14342;SDS011;7255;53.596;9.960;2022-12-08T00:56:33;24.63;;;18.23;;
14342;SDS011;7255;53.596;9.960;2022-12-08T00:59:01;23.93;;;18.47;;
14342;SDS011;7255;53.596;9.960;2022-12-08T01:01:29;25.70;;;19.07;;
14342;SDS011;7255;53.596;9.960;2022-12-08T01:03:55;26.40;;;16.77;;
14342;SDS011;7255;53.596;9.960;2022-12-08T01:06:21;22.77;;;16.97;;
14342;SDS011;7255;53.596;9.960;2022-12-08T01:08:48;20.23;;;17.03;;
14342;SDS011;7255;53.596;9.960;2022-12-08T01:11:17;21.13;;;15.37;;
14342;SDS011;7255;53.596;9.960;2022-12-08T01:13:44;24.03;;;14.87;;
14342;SDS011;7255;53.596;9.960;2022-12-08T01:16:18;19.07;;;15.27;;
14342;SDS011;7255;53.596;9.960;2022-12-08T01:18:45;22.30;;;15.53;;
14342;SDS011;7255;53.596;9.960;2022-12-08T01:21:12;20.03;;;14.50;;
14342;SDS011;7255;53.596;9.960;2022-12-08T01:23:38;19.60;;;14.77;;
14342;SDS011;7255;53.596;9.960;2022-12-08T01:26:05;19.60;;;15.03;;
14342;SDS011;7255;53.596;9.960;2022-12-08T01:28:33;16.27;;;12.47;;
14342;SDS011;7255;53.596;9.960;2022-12-08T01:30:59;17.37;;;14.20;;
14342;SDS011;7255;53.596;9.960;2022-12-08T01:33:28;17.93;;;13.17;;
14342;SDS011;7255;53.596;9.960;2022-12-08T01:35:54;17.07;;;13.33;;
14342;SDS011;7255;53.596;9.960;2022-12-08T01:38:21;15.53;;;12.67;;
14342;SDS011;7255;53.596;9.960;2022-12-08T01:40:47;17.43;;;12.93;;
14342;SDS011;7255;53.596;9.960;2022-12-08T01:43:15;15.43;;;11.83;;
14342;SDS011;7255;53.596;9.960;2022-12-08T01:45:42;15.13;;;12.47;;
14342;SDS011;7255;53.596;9.960;2022-12-08T01:48:09;16.77;;;13.20;;
14342;SDS011;7255;53.596;9.960;2022-12-08T01:50:43;17.27;;;12.43;;
14342;SDS011;7255;53.596;9.960;2022-12-08T01:53:12;17.70;;;12.93;;
14342;SDS011;7255;53.596;9.960;2022-12-08T01:55:43;15.07;;;12.30;;
14342;SDS011;7255;53.596;9.960;2022-12-08T01:58:12;13.47;;;10.77;;
14342;SDS011;7255;53.596;9.960;2022-12-08T02:00:43;17.47;;;12.03;;
14342;SDS011;7255;53.596;9.960;2022-12-08T02:03:10;14.93;;;11.20;;
14342;SDS011;7255;53.596;9.960;2022-12-08T02:05:39;14.20;;;10.73;;
14342;SDS011;7255;53.596;9.960;2022-12-08T02:08:08;11.20;;;9.97;;
14342;SDS011;7255;53.596;9.960;2022-12-08T02:10:38;10.67;;;9.23;;
14342;SDS011;7255;53.596;9.960;2022-12-08T02:13:07;9.80;;;8.77;;
14342;SDS011;7255;53.596;9.960;2022-12-08T02:15:38;10.97;;;9.33;;
14342;SDS011;7255;53.596;9.960;2022-12-08T02:18:18;12.97;;;10.30;;
14342;SDS011;7255;53.596;9.960;2022-12-08T02:21:01;12.20;;;10.70;;
14342;SDS011;7255;53.596;9.960;2022-12-08T02:23:35;12.57;;;10.63;;
14342;SDS011;7255;53.596;9.960;2022-12-08T02:32:22;12.70;;;10.13;;
14342;SDS011;7255;53.596;9.960;2022-12-08T02:35:12;11.13;;;9.93;;
14342;SDS011;7255;53.596;9.960;2022-12-08T02:37:45;16.60;;;11.10;;
14342;SDS011;7255;53.596;9.960;2022-12-08T02:40:16;11.87;;;9.80;;
14342;SDS011;7255;53.596;9.960;2022-12-08T02:42:50;14.57;;;10.53;;
14342;SDS011;7255;53.596;9.960;2022-12-08T02:45:23;15.10;;;10.57;;
14342;SDS011;7255;53.596;9.960;2022-12-08T02:47:53;12.73;;;10.27;;
14342;SDS011;7255;53.596;9.960;2022-12-08T02:50:22;11.83;;;10.30;;
14342;SDS011;7255;53.596;9.960;2022-12-08T02:52:48;15.27;;;10.03;;
14342;SDS011;7255;53.596;9.960;2022-12-08T02:55:17;13.27;;;10.97;;
14342;SDS011;7255;53.596;9.960;2022-12-08T02:58:04;13.60;;;9.83;;
14342;SDS011;7255;53.596;9.960;2022-12-08T03:00:52;12.17;;;10.23;;
14342;SDS011;7255;53.596;9.960;2022-12-08T03:03:34;14.63;;;10.87;;
14342;SDS011;7255;53.596;9.960;2022-12-08T03:06:13;12.53;;;9.73;;
14342;SDS011;7255;53.596;9.960;2022-12-08T03:08:50;12.57;;;9.50;;
14342;SDS011;7255;53.596;9.960;2022-12-08T03:11:22;10.93;;;9.67;;
14342;SDS011;7255;53.596;9.960;2022-12-08T03:13:53;12.97;;;9.97;;
14342;SDS011;7255;53.596;9.960;2022-12-08T03:16:24;12.80;;;9.83;;
14342;SDS011;7255;53.596;9.960;2022-12-08T03:18:53;10.27;;;9.10;;
14342;SDS011;7255;53.596;9.960;2022-12-08T03:21:25;12.40;;;9.47;;
14342;SDS011;7255;53.596;9.960;2022-12-08T03:23:52;12.00;;;9.83;;
14342;SDS011;7255;53.596;9.960;2022-12-08T03:26:22;15.50;;;9.47;;
14342;SDS011;7255;53.596;9.960;2022-12-08T03:29:01;11.73;;;8.97;;
14342;SDS011;7255;53.596;9.960;2022-12-08T03:31:31;12.47;;;9.17;;
14342;SDS011;7255;53.596;9.960;2022-12-08T03:34:03;11.13;;;8.63;;
14342;SDS011;7255;53.596;9.960;2022-12-08T03:36:31;8.90;;;8.00;;
14342;SDS011;7255;53.596;9.960;2022-12-08T03:38:58;8.80;;;7.83;;
14342;SDS011;7255;53.596;9.960;2022-12-08T03:41:25;11.00;;;7.57;;
14342;SDS011;7255;53.596;9.960;2022-12-08T03:43:52;11.03;;;8.50;;
14342;SDS011;7255;53.596;9.960;2022-12-08T03:46:20;9.23;;;7.80;;
14342;SDS011;7255;53.596;9.960;2022-12-08T03:48:47;8.50;;;7.07;;
14342;SDS011;7255;53.596;9.960;2022-12-08T03:51:14;11.63;;;8.07;;
14342;SDS011;7255;53.596;9.960;2022-12-08T03:53:42;10.00;;;7.43;;
14342;SDS011;7255;53.596;9.960;2022-12-08T03:56:14;10.83;;;8.37;;
14342;SDS011;7255;53.596;9.960;2022-12-08T03:58:42;9.67;;;8.67;;
14342;SDS011;7255;53.596;9.960;2022-12-08T04:01:08;9.33;;;8.30;;
14342;SDS011;7255;53.596;9.960;2022-12-08T04:03:35;9.07;;;8.17;;
14342;SDS011;7255;53.596;9.960;2022-12-08T04:06:02;9.27;;;8.37;;
14342;SDS011;7255;53.596;9.960;2022-12-08T04:08:29;9.97;;;8.63;;
14342;SDS011;7255;53.596;9.960;2022-12-08T04:10:56;9.53;;;7.87;;
14342;SDS011;7255;53.596;9.960;2022-12-08T04:13:23;8.70;;;7.80;;
14342;SDS011;7255;53.596;9.960;2022-12-08T04:15:49;9.13;;;7.40;;
14342;SDS011;7255;53.596;9.960;2022-12-08T04:18:15;8.07;;;7.23;;
14342;SDS011;7255;53.596;9.960;2022-12-08T04:20:42;8.53;;;7.70;;
14342;SDS011;7255;53.596;9.960;2022-12-08T04:23:10;7.93;;;6.93;;
14342;SDS011;7255;53.596;9.960;2022-12-08T04:25:37;14.20;;;7.23;;
14342;SDS011;7255;53.596;9.960;2022-12-08T04:28:05;7.33;;;6.50;;
14342;SDS011;7255;53.596;9.960;2022-12-08T04:30:31;6.70;;;6.10;;
14342;SDS011;7255;53.596;9.960;2022-12-08T04:32:58;6.90;;;6.23;;
14342;SDS011;7255;53.596;9.960;2022-12-08T04:35:25;7.83;;;5.93;;
14342;SDS011;7255;53.596;9.960;2022-12-08T04:37:52;7.17;;;6.47;;
14342;SDS011;7255;53.596;9.960;2022-12-08T04:40:18;7.53;;;6.83;;
14342;SDS011;7255;53.596;9.960;2022-12-08T04:42:45;7.07;;;6.37;;
14342;SDS011;7255;53.596;9.960;2022-12-08T04:45:12;6.50;;;5.90;;
14342;SDS011;7255;53.596;9.960;2022-12-08T04:47:39;8.40;;;5.60;;
14342;SDS011;7255;53.596;9.960;2022-12-08T04:50:06;6.30;;;5.63;;
14342;SDS011;7255;53.596;9.960;2022-12-08T04:52:33;6.27;;;5.67;;
14342;SDS011;7255;53.596;9.960;2022-12-08T04:54:59;6.60;;;5.40;;
14342;SDS011;7255;53.596;9.960;2022-12-08T04:57:26;6.30;;;5.77;;
14342;SDS011;7255;53.596;9.960;2022-12-08T04:59:53;6.10;;;5.60;;
14342;SDS011;7255;53.596;9.960;2022-12-08T05:02:20;5.77;;;5.27;;
14342;SDS011;7255;53.596;9.960;2022-12-08T05:04:46;5.63;;;5.13;;
14342;SDS011;7255;53.596;9.960;2022-12-08T05:07:13;5.27;;;4.87;;
14342;SDS011;7255;53.596;9.960;2022-12-08T05:09:39;4.87;;;4.37;;
14342;SDS011;7255;53.596;9.960;2022-12-08T05:12:06;5.57;;;4.37;;
14342;SDS011;7255;53.596;9.960;2022-12-08T05:14:32;4.60;;;4.20;;
14342;SDS011;7255;53.596;9.960;2022-12-08T05:16:58;5.20;;;4.50;;
14342;SDS011;7255;53.596;9.960;2022-12-08T05:19:26;5.70;;;5.07;;
14342;SDS011;7255;53.596;9.960;2022-12-08T05:21:52;5.60;;;5.00;;
14342;SDS011;7255;53.596;9.960;2022-12-08T05:24:18;6.93;;;6.23;;
14342;SDS011;7255;53.596;9.960;2022-12-08T05:26:45;6.70;;;6.00;;
14342;SDS011;7255;53.596;9.960;2022-12-08T05:29:11;6.17;;;5.67;;
14342;SDS011;7255;53.596;9.960;2022-12-08T05:31:37;5.77;;;5.10;;
14342;SDS011;7255;53.596;9.960;2022-12-08T05:34:04;6.07;;;5.47;;
14342;SDS011;7255;53.596;9.960;2022-12-08T05:36:31;5.80;;;5.23;;
14342;SDS011;7255;53.596;9.960;2022-12-08T05:38:58;6.53;;;5.13;;
14342;SDS011;7255;53.596;9.960;2022-12-08T05:41:24;5.67;;;5.17;;
14342;SDS011;7255;53.596;9.960;2022-12-08T05:43:50;6.27;;;4.77;;
14342;SDS011;7255;53.596;9.960;2022-12-08T05:46:17;5.50;;;4.43;;
14342;SDS011;7255;53.596;9.960;2022-12-08T05:48:43;5.40;;;4.90;;
14342;SDS011;7255;53.596;9.960;2022-12-08T05:51:13;4.37;;;4.00;;
14342;SDS011;7255;53.596;9.960;2022-12-08T05:53:43;4.83;;;4.30;;
14342;SDS011;7255;53.596;9.960;2022-12-08T05:56:09;4.30;;;3.90;;
14342;SDS011;7255;53.596;9.960;2022-12-08T05:58:35;4.40;;;4.00;;
14342;SDS011;7255;53.596;9.960;2022-12-08T06:01:02;4.80;;;4.40;;
14342;SDS011;7255;53.596;9.960;2022-12-08T06:03:28;3.60;;;3.30;;
14342;SDS011;7255;53.596;9.960;2022-12-08T06:05:54;3.93;;;3.63;;
14342;SDS011;7255;53.596;9.960;2022-12-08T06:08:21;3.83;;;3.53;;
14342;SDS011;7255;53.596;9.960;2022-12-08T06:10:48;3.90;;;3.60;;
14342;SDS011;7255;53.596;9.960;2022-12-08T06:13:15;4.17;;;3.37;;
14342;SDS011;7255;53.596;9.960;2022-12-08T06:15:41;3.70;;;3.40;;
14342;SDS011;7255;53.596;9.960;2022-12-08T06:18:08;4.13;;;3.83;;
14342;SDS011;7255;53.596;9.960;2022-12-08T06:20:35;3.63;;;3.33;;
14342;SDS011;7255;53.596;9.960;2022-12-08T06:23:01;4.17;;;3.80;;
14342;SDS011;7255;53.596;9.960;2022-12-08T06:25:28;3.80;;;3.50;;
14342;SDS011;7255;53.596;9.960;2022-12-08T06:27:56;4.13;;;3.83;;
14342;SDS011;7255;53.596;9.960;2022-12-08T06:30:22;4.07;;;3.77;;
14342;SDS011;7255;53.596;9.960;2022-12-08T06:32:49;4.70;;;4.30;;
14342;SDS011;7255;53.596;9.960;2022-12-08T06:35:15;4.67;;;4.27;;
14342;SDS011;7255;53.596;9.960;2022-12-08T06:37:41;4.83;;;4.10;;
14342;SDS011;7255;53.596;9.960;2022-12-08T06:40:08;5.07;;;4.53;;
14342;SDS011;7255;53.596;9.960;2022-12-08T06:42:35;5.00;;;4.60;;
14342;SDS011;7255;53.596;9.960;2022-12-08T06:45:13;5.23;;;4.70;;
14342;SDS011;7255;53.596;9.960;2022-12-08T06:47:40;5.87;;;5.27;;
14342;SDS011;7255;53.596;9.960;2022-12-08T06:50:07;5.30;;;4.80;;
14342;SDS011;7255;53.596;9.960;2022-12-08T06:52:34;6.23;;;5.67;;
14342;SDS011;7255;53.596;9.960;2022-12-08T06:55:01;6.20;;;5.60;;
14342;SDS011;7255;53.596;9.960;2022-12-08T06:57:27;6.40;;;5.83;;
14342;SDS011;7255;53.596;9.960;2022-12-08T06:59:53;6.93;;;6.33;;
14342;SDS011;7255;53.596;9.960;2022-12-08T07:02:21;8.93;;;7.07;;
14342;SDS011;7255;53.596;9.960;2022-12-08T07:04:47;8.03;;;7.07;;
14342;SDS011;7255;53.596;9.960;2022-12-08T07:07:13;8.70;;;7.70;;
14342;SDS011;7255;53.596;9.960;2022-12-08T07:09:40;9.10;;;8.10;;
14342;SDS011;7255;53.596;9.960;2022-12-08T07:12:06;8.67;;;6.90;;
14342;SDS011;7255;53.596;9.960;2022-12-08T07:14:32;8.47;;;7.60;;
14342;SDS011;7255;53.596;9.960;2022-12-08T07:16:59;7.83;;;6.90;;
14342;SDS011;7255;53.596;9.960;2022-12-08T07:19:27;7.57;;;6.87;;
14342;SDS011;7255;53.596;9.960;2022-12-08T07:21:53;8.07;;;6.90;;
14342;SDS011;7255;53.596;9.960;2022-12-08T07:24:20;8.40;;;7.60;;
14342;SDS011;7255;53.596;9.960;2022-12-08T07:26:46;7.53;;;6.83;;
14342;SDS011;7255;53.596;9.960;2022-12-08T07:29:12;7.63;;;6.87;;
14342;SDS011;7255;53.596;9.960;2022-12-08T07:31:39;7.97;;;7.17;;
14342;SDS011;7255;53.596;9.960;2022-12-08T07:34:05;9.30;;;7.17;;
14342;SDS011;7255;53.596;9.960;2022-12-08T07:36:33;8.37;;;7.50;;
14342;SDS011;7255;53.596;9.960;2022-12-08T07:38:59;10.27;;;8.17;;
14342;SDS011;7255;53.596;9.960;2022-12-08T07:41:25;8.83;;;7.60;;
14342;SDS011;7255;53.596;9.960;2022-12-08T07:43:52;12.87;;;9.30;;
14342;SDS011;7255;53.596;9.960;2022-12-08T07:46:19;10.53;;;8.07;;
14342;SDS011;7255;53.596;9.960;2022-12-08T07:48:46;10.57;;;8.33;;
14342;SDS011;7255;53.596;9.960;2022-12-08T07:51:13;9.77;;;8.73;;
14342;SDS011;7255;53.596;9.960;2022-12-08T07:53:42;10.80;;;9.13;;
14342;SDS011;7255;53.596;9.960;2022-12-08T07:56:11;12.70;;;9.80;;
14342;SDS011;7255;53.596;9.960;2022-12-08T07:58:38;12.43;;;9.53;;
14342;SDS011;7255;53.596;9.960;2022-12-08T08:01:05;10.37;;;9.13;;
14342;SDS011;7255;53.596;9.960;2022-12-08T08:03:31;11.27;;;9.90;;
14342;SDS011;7255;53.596;9.960;2022-12-08T08:06:01;13.30;;;9.63;;
14342;SDS011;7255;53.596;9.960;2022-12-08T08:08:28;11.27;;;10.07;;
14342;SDS011;7255;53.596;9.960;2022-12-08T08:10:55;12.13;;;9.83;;
14342;SDS011;7255;53.596;9.960;2022-12-08T08:13:21;14.27;;;10.47;;
14342;SDS011;7255;53.596;9.960;2022-12-08T08:15:48;10.57;;;9.50;;
14342;SDS011;7255;53.596;9.960;2022-12-08T08:18:14;12.17;;;9.97;;
14342;SDS011;7255;53.596;9.960;2022-12-08T08:20:40;12.77;;;10.17;;
14342;SDS011;7255;53.596;9.960;2022-12-08T08:23:07;11.10;;;9.90;;
14342;SDS011;7255;53.596;9.960;2022-12-08T08:25:33;10.83;;;9.73;;
14342;SDS011;7255;53.596;9.960;2022-12-08T08:28:01;11.73;;;9.63;;
14342;SDS011;7255;53.596;9.960;2022-12-08T08:30:27;10.60;;;8.63;;
14342;SDS011;7255;53.596;9.960;2022-12-08T08:32:53;11.77;;;8.47;;
14342;SDS011;7255;53.596;9.960;2022-12-08T08:35:19;11.73;;;9.00;;
14342;SDS011;7255;53.596;9.960;2022-12-08T08:37:46;10.17;;;9.03;;
14342;SDS011;7255;53.596;9.960;2022-12-08T08:40:12;11.20;;;8.67;;
14342;SDS011;7255;53.596;9.960;2022-12-08T08:42:38;8.97;;;7.87;;
14342;SDS011;7255;53.596;9.960;2022-12-08T08:45:06;10.47;;;9.00;;
14342;SDS011;7255;53.596;9.960;2022-12-08T08:47:33;9.67;;;7.97;;
14342;SDS011;7255;53.596;9.960;2022-12-08T08:50:00;9.77;;;7.57;;
14342;SDS011;7255;53.596;9.960;2022-12-08T08:52:26;8.87;;;7.97;;
14342;SDS011;7255;53.596;9.960;2022-12-08T08:54:52;9.93;;;8.00;;
14342;SDS011;7255;53.596;9.960;2022-12-08T08:57:19;8.77;;;6.93;;
14342;SDS011;7255;53.596;9.960;2022-12-08T08:59:45;8.83;;;7.83;;
14342;SDS011;7255;53.596;9.960;2022-12-08T09:02:14;9.03;;;7.33;;
14342;SDS011;7255;53.596;9.960;2022-12-08T09:04:42;9.10;;;8.13;;
14342;SDS011;7255;53.596;9.960;2022-12-08T09:07:08;9.37;;;7.40;;
14342;SDS011;7255;53.596;9.960;2022-12-08T09:09:35;9.73;;;8.07;;
14342;SDS011;7255;53.596;9.960;2022-12-08T09:12:01;9.80;;;7.47;;
14342;SDS011;7255;53.596;9.960;2022-12-08T09:14:27;9.10;;;8.20;;
14342;SDS011;7255;53.596;9.960;2022-12-08T09:16:54;8.67;;;7.73;;
14342;SDS011;7255;53.596;9.960;2022-12-08T09:19:22;9.90;;;8.27;;
14342;SDS011;7255;53.596;9.960;2022-12-08T09:21:48;12.77;;;8.33;;
14342;SDS011;7255;53.596;9.960;2022-12-08T09:24:14;9.87;;;8.47;;
14342;SDS011;7255;53.596;9.960;2022-12-08T09:26:41;10.47;;;9.37;;
14342;SDS011;7255;53.596;9.960;2022-12-08T09:29:09;10.27;;;8.70;;
14342;SDS011;7255;53.596;9.960;2022-12-08T09:31:36;9.20;;;8.10;;
14342;SDS011;7255;53.596;9.960;2022-12-08T09:34:03;8.90;;;7.80;;
14342;SDS011;7255;53.596;9.960;2022-12-08T09:36:31;14.13;;;8.37;;
14342;SDS011;7255;53.596;9.960;2022-12-08T09:38:57;8.47;;;7.57;;
14342;SDS011;7255;53.596;9.960;2022-12-08T09:41:30;9.73;;;8.73;;
14342;SDS011;7255;53.596;9.960;2022-12-08T09:44:01;9.10;;;7.37;;
14342;SDS011;7255;53.596;9.960;2022-12-08T09:46:41;10.37;;;9.23;;
14342;SDS011;7255;53.596;9.960;2022-12-08T09:49:10;13.13;;;10.93;;
14342;SDS011;7255;53.596;9.960;2022-12-08T09:51:42;8.53;;;7.23;;
14342;SDS011;7255;53.596;9.960;2022-12-08T09:54:12;10.57;;;8.70;;
14342;SDS011;7255;53.596;9.960;2022-12-08T09:56:43;8.43;;;7.53;;
14342;SDS011;7255;53.596;9.960;2022-12-08T09:59:15;9.50;;;7.70;;
14342;SDS011;7255;53.596;9.960;2022-12-08T10:01:47;8.67;;;7.33;;
14342;SDS011;7255;53.596;9.960;2022-12-08T10:04:16;11.83;;;7.90;;
14342;SDS011;7255;53.596;9.960;2022-12-08T10:06:50;11.70;;;7.77;;
14342;SDS011;7255;53.596;9.960;2022-12-08T10:09:27;16.20;;;7.93;;
14342;SDS011;7255;53.596;9.960;2022-12-08T10:11:59;13.37;;;7.30;;
14342;SDS011;7255;53.596;9.960;2022-12-08T10:14:33;7.43;;;6.67;;
14342;SDS011;7255;53.596;9.960;2022-12-08T10:17:04;9.73;;;7.30;;
14342;SDS011;7255;53.596;9.960;2022-12-08T10:19:39;10.53;;;7.03;;
14342;SDS011;7255;53.596;9.960;2022-12-08T10:22:11;8.03;;;6.73;;
14342;SDS011;7255;53.596;9.960;2022-12-08T10:24:43;10.83;;;7.13;;
14342;SDS011;7255;53.596;9.960;2022-12-08T10:27:17;8.70;;;6.93;;
14342;SDS011;7255;53.596;9.960;2022-12-08T10:29:44;8.53;;;6.80;;
14342;SDS011;7255;53.596;9.960;2022-12-08T10:32:12;9.37;;;7.30;;
14342;SDS011;7255;53.596;9.960;2022-12-08T10:34:57;10.00;;;7.27;;
14342;SDS011;7255;53.596;9.960;2022-12-08T10:37:26;9.03;;;7.47;;
14342;SDS011;7255;53.596;9.960;2022-12-08T10:39:57;9.37;;;7.63;;
14342;SDS011;7255;53.596;9.960;2022-12-08T10:42:25;8.57;;;7.63;;
14342;SDS011;7255;53.596;9.960;2022-12-08T10:44:59;11.70;;;7.80;;
14342;SDS011;7255;53.596;9.960;2022-12-08T10:47:40;8.27;;;7.43;;
14342;SDS011;7255;53.596;9.960;2022-12-08T10:50:18;8.50;;;7.67;;
14342;SDS011;7255;53.596;9.960;2022-12-08T10:52:52;8.23;;;6.83;;
14342;SDS011;7255;53.596;9.960;2022-12-08T10:55:20;9.37;;;8.07;;
14342;SDS011;7255;53.596;9.960;2022-12-08T10:57:46;7.83;;;7.00;;
14342;SDS011;7255;53.596;9.960;2022-12-08T11:00:14;9.63;;;7.97;;
14342;SDS011;7255;53.596;9.960;2022-12-08T11:02:50;8.10;;;7.07;;
14342;SDS011;7255;53.596;9.960;2022-12-08T11:05:19;7.97;;;6.57;;
14342;SDS011;7255;53.596;9.960;2022-12-08T11:07:49;7.10;;;6.23;;
14342;SDS011;7255;53.596;9.960;2022-12-08T11:10:17;8.03;;;7.00;;
14342;SDS011;7255;53.596;9.960;2022-12-08T11:12:45;8.70;;;7.33;;
14342;SDS011;7255;53.596;9.960;2022-12-08T11:15:13;7.83;;;6.60;;
14342;SDS011;7255;53.596;9.960;2022-12-08T11:17:42;7.97;;;7.17;;
14342;SDS011;7255;53.596;9.960;2022-12-08T11:20:19;9.37;;;7.03;;
14342;SDS011;7255;53.596;9.960;2022-12-08T11:22:51;10.20;;;8.00;;
14342;SDS011;7255;53.596;9.960;2022-12-08T11:25:19;7.30;;;6.37;;
14342;SDS011;7255;53.596;9.960;2022-12-08T11:27:48;8.33;;;7.37;;
14342;SDS011;7255;53.596;9.960;2022-12-08T11:30:17;7.57;;;6.83;;
14342;SDS011;7255;53.596;9.960;2022-12-08T11:32:46;9.07;;;7.20;;
14342;SDS011;7255;53.596;9.960;2022-12-08T11:35:18;8.77;;;7.77;;
14342;SDS011;7255;53.596;9.960;2022-12-08T11:37:50;10.30;;;7.30;;
14342;SDS011;7255;53.596;9.960;2022-12-08T11:40:19;7.13;;;6.43;;
14342;SDS011;7255;53.596;9.960;2022-12-08T11:42:50;8.80;;;7.67;;
14342;SDS011;7255;53.596;9.960;2022-12-08T11:45:23;9.37;;;6.77;;
14342;SDS011;7255;53.596;9.960;2022-12-08T11:47:54;8.53;;;7.17;;
14342;SDS011;7255;53.596;9.960;2022-12-08T11:50:28;13.27;;;7.47;;
14342;SDS011;7255;53.596;9.960;2022-12-08T11:53:03;7.90;;;7.10;;
14342;SDS011;7255;53.596;9.960;2022-12-08T11:55:37;8.23;;;7.40;;
14342;SDS011;7255;53.596;9.960;2022-12-08T11:58:10;9.67;;;7.80;;
14342;SDS011;7255;53.596;9.960;2022-12-08T12:00:42;8.63;;;7.03;;
14342;SDS011;7255;53.596;9.960;2022-12-08T12:03:14;9.80;;;7.73;;
14342;SDS011;7255;53.596;9.960;2022-12-08T12:05:53;8.60;;;7.30;;
14342;SDS011;7255;53.596;9.960;2022-12-08T12:08:40;9.17;;;7.50;;
14342;SDS011;7255;53.596;9.960;2022-12-08T12:11:17;8.10;;;7.23;;
14342;SDS011;7255;53.596;9.960;2022-12-08T12:14:13;9.90;;;7.30;;
14342;SDS011;7255;53.596;9.960;2022-12-08T12:16:59;7.60;;;6.80;;
14342;SDS011;7255;53.596;9.960;2022-12-08T12:19:27;8.97;;;7.43;;
14342;SDS011;7255;53.596;9.960;2022-12-08T12:21:58;7.70;;;6.90;;
14342;SDS011;7255;53.596;9.960;2022-12-08T12:24:37;9.17;;;7.40;;
14342;SDS011;7255;53.596;9.960;2022-12-08T12:27:05;7.93;;;7.23;;
14342;SDS011;7255;53.596;9.960;2022-12-08T12:29:44;7.87;;;6.57;;
14342;SDS011;7255;53.596;9.960;2022-12-08T12:32:13;8.07;;;7.13;;
14342;SDS011;7255;53.596;9.960;2022-12-08T12:34:43;8.50;;;7.47;;
14342;SDS011;7255;53.596;9.960;2022-12-08T12:37:15;8.57;;;7.50;;
14342;SDS011;7255;53.596;9.960;2022-12-08T12:39:48;10.97;;;7.20;;
14342;SDS011;7255;53.596;9.960;2022-12-08T12:42:36;8.37;;;7.47;;
14342;SDS011;7255;53.596;9.960;2022-12-08T12:45:09;8.50;;;7.60;;
14342;SDS011;7255;53.596;9.960;2022-12-08T12:47:48;7.77;;;7.00;;
14342;SDS011;7255;53.596;9.960;2022-12-08T12:50:35;8.60;;;7.53;;
14342;SDS011;7255;53.596;9.960;2022-12-08T12:53:44;8.20;;;7.40;;
14342;SDS011;7255;53.596;9.960;2022-12-08T13:02:15;8.60;;;7.50;;
14342;SDS011;7255;53.596;9.960;2022-12-08T13:04:52;8.20;;;7.03;;
14342;SDS011;7255;53.596;9.960;2022-12-08T13:07:22;7.63;;;6.93;;
14342;SDS011;7255;53.596;9.960;2022-12-08T13:09:54;9.90;;;8.73;;
14342;SDS011;7255;53.596;9.960;2022-12-08T13:12:24;8.87;;;7.80;;
14342;SDS011;7255;53.596;9.960;2022-12-08T13:14:52;7.83;;;7.03;;
14342;SDS011;7255;53.596;9.960;2022-12-08T13:17:27;10.03;;;8.23;;
14342;SDS011;7255;53.596;9.960;2022-12-08T13:19:56;8.60;;;7.80;;
14342;SDS011;7255;53.596;9.960;2022-12-08T13:25:46;10.63;;;7.80;;
14342;SDS011;7255;53.596;9.960;2022-12-08T13:28:22;8.67;;;7.77;;
14342;SDS011;7255;53.596;9.960;2022-12-08T13:30:52;11.00;;;7.93;;
14342;SDS011;7255;53.596;9.960;2022-12-08T13:33:27;10.60;;;7.40;;
14342;SDS011;7255;53.596;9.960;2022-12-08T13:36:00;7.93;;;7.20;;
14342;SDS011;7255;53.596;9.960;2022-12-08T13:38:34;7.83;;;7.03;;
14342;SDS011;7255;53.596;9.960;2022-12-08T13:41:05;7.60;;;6.90;;
14342;SDS011;7255;53.596;9.960;2022-12-08T13:43:36;7.87;;;7.10;;
14342;SDS011;7255;53.596;9.960;2022-12-08T13:46:05;8.23;;;7.43;;
14342;SDS011;7255;53.596;9.960;2022-12-08T13:48:38;8.00;;;7.30;;
14342;SDS011;7255;53.596;9.960;2022-12-08T13:51:11;9.03;;;7.47;;
14342;SDS011;7255;53.596;9.960;2022-12-08T13:53:41;8.63;;;7.50;;
14342;SDS011;7255;53.596;9.960;2022-12-08T13:56:09;8.03;;;6.77;;
14342;SDS011;7255;53.596;9.960;2022-12-08T13:58:38;9.90;;;8.20;;
14342;SDS011;7255;53.596;9.960;2022-12-08T14:01:06;11.30;;;7.97;;
14342;SDS011;7255;53.596;9.960;2022-12-08T14:03:43;11.77;;;7.80;;
14342;SDS011;7255;53.596;9.960;2022-12-08T14:06:13;9.30;;;7.90;;
14342;SDS011;7255;53.596;9.960;2022-12-08T14:08:40;9.40;;;8.23;;
14342;SDS011;7255;53.596;9.960;2022-12-08T14:11:08;8.83;;;7.77;;
14342;SDS011;7255;53.596;9.960;2022-12-08T14:13:58;10.10;;;8.57;;
14342;SDS011;7255;53.596;9.960;2022-12-08T14:16:26;9.20;;;8.20;;
14342;SDS011;7255;53.596;9.960;2022-12-08T14:18:53;9.60;;;8.03;;
14342;SDS011;7255;53.596;9.960;2022-12-08T14:21:20;11.27;;;8.07;;
14342;SDS011;7255;53.596;9.960;2022-12-08T14:23:47;9.27;;;8.10;;
14342;SDS011;7255;53.596;9.960;2022-12-08T14:26:13;9.50;;;8.30;;
14342;SDS011;7255;53.596;9.960;2022-12-08T14:28:39;9.53;;;8.43;;
14342;SDS011;7255;53.596;9.960;2022-12-08T14:31:09;9.73;;;8.30;;
14342;SDS011;7255;53.596;9.960;2022-12-08T14:33:37;9.23;;;7.60;;
14342;SDS011;7255;53.596;9.960;2022-12-08T14:36:07;8.77;;;7.90;;
14342;SDS011;7255;53.596;9.960;2022-12-08T14:38:34;8.80;;;7.43;;
14342;SDS011;7255;53.596;9.960;2022-12-08T14:41:02;9.80;;;7.60;;
14342;SDS011;7255;53.596;9.960;2022-12-08T14:43:30;9.60;;;8.03;;
14342;SDS011;7255;53.596;9.960;2022-12-08T14:45:58;12.67;;;7.70;;
14342;SDS011;7255;53.596;9.960;2022-12-08T14:48:39;9.00;;;7.67;;
14342;SDS011;7255;53.596;9.960;2022-12-08T14:51:11;8.13;;;7.33;;
14342;SDS011;7255;53.596;9.960;2022-12-08T14:53:42;9.10;;;8.17;;
14342;SDS011;7255;53.596;9.960;2022-12-08T14:56:16;10.83;;;8.50;;
14342;SDS011;7255;53.596;9.960;2022-12-08T14:58:45;8.87;;;7.97;;
14342;SDS011;7255;53.596;9.960;2022-12-08T15:01:14;12.70;;;8.23;;
14342;SDS011;7255;53.596;9.960;2022-12-08T15:03:47;9.90;;;7.60;;
14342;SDS011;7255;53.596;9.960;2022-12-08T15:06:13;8.23;;;7.40;;
14342;SDS011;7255;53.596;9.960;2022-12-08T15:08:50;8.87;;;7.63;;
14342;SDS011;7255;53.596;9.960;2022-12-08T15:11:25;10.00;;;8.00;;
14342;SDS011;7255;53.596;9.960;2022-12-08T15:13:56;9.70;;;8.70;;
14342;SDS011;7255;53.596;9.960;2022-12-08T15:16:26;10.60;;;8.67;;
14342;SDS011;7255;53.596;9.960;2022-12-08T15:19:01;9.73;;;8.73;;
14342;SDS011;7255;53.596;9.960;2022-12-08T15:21:31;14.53;;;8.73;;
14342;SDS011;7255;53.596;9.960;2022-12-08T15:24:03;10.17;;;8.77;;